KANW/ANW METAR and TAF weather

Enter ICAO airport designator
Station Type Date Time Source
KANW METAR 2019/10/21 06:15 UTC NOAA

KANW 210615Z AUTO 30020G27KT 10SM OVC011 04/01 A2949 RMK AO2 T00350005


Station Type Date Time Source
KANW Decoded METAR 2019/10/21 06:15 UTC NOAA

Ainsworth Municipal, NE, United States (KANW) 42-35N 100-00W
Oct 21, 2019 - 02:15 AM EDT / 2019.10.21 0615 UTC
Wind: from the WNW (300 degrees) at 23 MPH (20 KT) gusting to 31 MPH (27 KT):0
Visibility: 10 mile(s):0
Sky conditions: overcast
Temperature: 38.3 F (3.5 C)
Dew Point: 32.9 F (0.5 C)
Relative Humidity: 80%
Pressure (altimeter): 29.49 in. Hg (998 hPa)
ob: KANW 210615Z AUTO 30020G27KT 10SM OVC011 04/01 A2949 RMK AO2 T00350005
cycle: 6

Station Type Date Time Source
KANW TAF UTC NOAA

Error!

Example: see airport list